Time;durP1;ratioP1;P1;durP2;ratioP2;P2;SDS_P1;SDS_P2;PMS_P1;PMS_P2;Temp;Humidity;BMP_temperature;BMP_pressure;BME280_temperature;BME280_humidity;BME280_pressure;Samples;Min_cycle;Max_cycle;Signal;HPM_P1;HPM_P2
2022/09/08 00:01:00;;;;;;;17.37;14.10;;;;;;;;;;4975779;28;20400;-52
2022/09/08 00:03:27;;;;;;;17.20;15.47;;;;;;;;;;4975458;28;20405;-52
2022/09/08 00:05:53;;;;;;;19.30;15.57;;;;;;;;;;4974154;28;20432;-50
2022/09/08 00:08:20;;;;;;;16.90;14.10;;;;;;;;;;4974974;28;20400;-52
2022/09/08 00:10:47;;;;;;;15.73;13.20;;;;;;;;;;4975325;28;20405;-51
2022/09/08 00:13:13;;;;;;;13.53;11.40;;;;;;;;;;4975019;28;20419;-49
2022/09/08 00:15:39;;;;;;;11.50;10.57;;;;;;;;;;4973948;28;20782;-52
2022/09/08 00:18:08;;;;;;;13.00;11.40;;;;;;;;;;4974571;28;20746;-51
2022/09/08 00:20:34;;;;;;;11.90;10.70;;;;;;;;;;4975158;28;20454;-51
2022/09/08 00:23:00;;;;;;;10.80;9.90;;;;;;;;;;4975269;28;20429;-52
2022/09/08 00:25:26;;;;;;;11.83;10.83;;;;;;;;;;4974641;28;20428;-52
2022/09/08 00:27:52;;;;;;;15.60;11.17;;;;;;;;;;4974587;28;20404;-52
2022/09/08 00:30:18;;;;;;;11.97;11.07;;;;;;;;;;4974196;28;20411;-51
2022/09/08 00:32:44;;;;;;;12.40;10.30;;;;;;;;;;4973696;28;20413;-49
2022/09/08 00:35:14;;;;;;;11.53;10.43;;;;;;;;;;4973951;28;20447;-50
2022/09/08 00:37:40;;;;;;;11.20;10.20;;;;;;;;;;4973194;28;20946;-52
2022/09/08 00:40:06;;;;;;;15.10;10.90;;;;;;;;;;4974753;28;20402;-51
2022/09/08 00:42:32;;;;;;;13.80;11.20;;;;;;;;;;4974799;28;20397;-51
2022/09/08 00:44:58;;;;;;;13.83;11.50;;;;;;;;;;4974389;28;20476;-52
2022/09/08 00:47:27;;;;;;;11.77;10.57;;;;;;;;;;4974164;28;20759;-51
2022/09/08 00:49:57;;;;;;;17.90;10.97;;;;;;;;;;4974674;28;20471;-52
2022/09/08 00:52:25;;;;;;;13.30;10.80;;;;;;;;;;4974578;28;20484;-51
2022/09/08 00:54:51;;;;;;;10.53;9.50;;;;;;;;;;4974161;28;21034;-51
2022/09/08 00:57:17;;;;;;;11.43;10.50;;;;;;;;;;4973991;28;20478;-51
2022/09/08 00:59:45;;;;;;;10.03;9.23;;;;;;;;;;4974280;28;20523;-52
2022/09/08 01:02:23;;;;;;;11.23;10.13;;;;;;;;;;4972792;28;20443;-51
2022/09/08 01:05:01;;;;;;;14.63;11.30;;;;;;;;;;4973613;28;20409;-51
2022/09/08 01:13:15;;;;;;;11.30;10.23;;;;;;;;;;4974094;28;20401;-52
2022/09/08 01:15:41;;;;;;;11.67;10.57;;;;;;;;;;4973940;28;20399;-51
2022/09/08 01:18:07;;;;;;;10.90;9.80;;;;;;;;;;4973807;28;20408;-50
2022/09/08 01:20:40;;;;;;;10.47;9.67;;;;;;;;;;4974086;28;20401;-51
2022/09/08 01:23:24;;;;;;;10.93;9.80;;;;;;;;;;4973031;28;20432;-52
2022/09/08 01:26:09;;;;;;;10.70;9.67;;;;;;;;;;4972893;28;20475;-50
2022/09/08 01:28:55;;;;;;;10.50;9.40;;;;;;;;;;4973461;28;20401;-50
2022/09/08 01:31:22;;;;;;;10.50;9.60;;;;;;;;;;4972015;28;20409;-50
2022/09/08 01:33:48;;;;;;;12.87;9.37;;;;;;;;;;4970758;28;20468;-49
2022/09/08 01:36:15;;;;;;;10.00;9.20;;;;;;;;;;4973072;28;20518;-52
2022/09/08 01:38:42;;;;;;;10.57;9.57;;;;;;;;;;4973258;28;20467;-52
2022/09/08 01:41:08;;;;;;;15.00;10.67;;;;;;;;;;4973771;28;20405;-50
2022/09/08 01:43:34;;;;;;;10.10;9.30;;;;;;;;;;4973785;28;20405;-50
2022/09/08 01:46:00;;;;;;;9.17;8.30;;;;;;;;;;4972402;28;20429;-51
2022/09/08 01:48:26;;;;;;;9.80;8.80;;;;;;;;;;4972999;28;20893;-52
2022/09/08 01:50:52;;;;;;;9.10;8.40;;;;;;;;;;4970959;28;20432;-49
2022/09/08 01:53:19;;;;;;;12.37;8.80;;;;;;;;;;4973251;28;20412;-51
2022/09/08 01:55:45;;;;;;;9.87;8.67;;;;;;;;;;4973253;28;20483;-52
2022/09/08 01:58:11;;;;;;;8.73;7.97;;;;;;;;;;4972530;28;20468;-52
2022/09/08 02:00:40;;;;;;;10.50;8.47;;;;;;;;;;4972384;28;20404;-52
2022/09/08 02:03:06;;;;;;;9.27;8.33;;;;;;;;;;4971124;28;20432;-51
2022/09/08 02:05:32;;;;;;;9.67;8.50;;;;;;;;;;4972552;28;20421;-52
2022/09/08 02:07:58;;;;;;;9.10;8.20;;;;;;;;;;4972866;28;20408;-51
2022/09/08 02:10:24;;;;;;;9.70;8.83;;;;;;;;;;4972771;28;20444;-51
2022/09/08 02:12:50;;;;;;;9.13;8.23;;;;;;;;;;4971629;28;20463;-52
2022/09/08 02:15:16;;;;;;;9.47;8.70;;;;;;;;;;4972831;28;20464;-51
2022/09/08 02:17:42;;;;;;;9.47;8.67;;;;;;;;;;4972746;28;20495;-51
2022/09/08 02:20:08;;;;;;;9.07;8.40;;;;;;;;;;4973149;28;20569;-51
2022/09/08 02:22:34;;;;;;;10.20;9.33;;;;;;;;;;4972199;28;20414;-52
2022/09/08 02:25:00;;;;;;;9.07;8.27;;;;;;;;;;4972228;28;20408;-50
2022/09/08 02:27:26;;;;;;;9.90;7.70;;;;;;;;;;4972692;28;20452;-52
2022/09/08 02:29:52;;;;;;;9.30;8.43;;;;;;;;;;4973067;28;20386;-52
2022/09/08 02:32:18;;;;;;;8.63;7.93;;;;;;;;;;4972710;28;20386;-52
2022/09/08 02:34:44;;;;;;;12.17;8.90;;;;;;;;;;4970846;28;20979;-51
2022/09/08 02:37:10;;;;;;;9.50;8.57;;;;;;;;;;4971916;28;20495;-51
2022/09/08 02:39:36;;;;;;;11.10;7.80;;;;;;;;;;4972228;28;20475;-50
2022/09/08 02:42:02;;;;;;;10.00;9.00;;;;;;;;;;4972975;28;20405;-51
2022/09/08 02:44:28;;;;;;;8.30;7.60;;;;;;;;;;4972822;28;20851;-51
2022/09/08 02:46:54;;;;;;;9.40;8.43;;;;;;;;;;4972696;28;20424;-50
2022/09/08 02:49:20;;;;;;;8.87;8.07;;;;;;;;;;4969633;28;20468;-49
2022/09/08 02:51:46;;;;;;;9.50;7.90;;;;;;;;;;4972677;28;20394;-50
2022/09/08 02:54:12;;;;;;;8.90;7.90;;;;;;;;;;4972912;28;20464;-50
2022/09/08 02:56:38;;;;;;;8.90;8.00;;;;;;;;;;4972207;28;20916;-50
2022/09/08 02:59:04;;;;;;;8.67;7.93;;;;;;;;;;4972002;28;20545;-52
2022/09/08 03:01:30;;;;;;;8.97;8.20;;;;;;;;;;4976000;28;20413;-50
2022/09/08 03:03:57;;;;;;;10.07;8.40;;;;;;;;;;4976330;28;20439;-51
2022/09/08 03:06:23;;;;;;;9.53;8.73;;;;;;;;;;4976329;28;20431;-52
2022/09/08 03:08:49;;;;;;;12.23;9.53;;;;;;;;;;4975175;28;20928;-51
2022/09/08 03:11:16;;;;;;;9.63;8.57;;;;;;;;;;4976483;28;20431;-51
2022/09/08 03:13:42;;;;;;;11.27;9.97;;;;;;;;;;4976287;28;20532;-51
2022/09/08 03:16:08;;;;;;;8.70;8.00;;;;;;;;;;4976118;28;20432;-51
2022/09/08 03:18:34;;;;;;;9.00;8.20;;;;;;;;;;4975882;28;21016;-51
2022/09/08 03:21:04;;;;;;;10.10;8.60;;;;;;;;;;4976176;28;20467;-51
2022/09/08 03:23:30;;;;;;;8.37;7.63;;;;;;;;;;4976115;28;20430;-52
2022/09/08 03:26:00;;;;;;;9.47;7.70;;;;;;;;;;4975914;28;20399;-52
2022/09/08 03:28:26;;;;;;;11.40;8.43;;;;;;;;;;4975716;28;20367;-51
2022/09/08 03:30:52;;;;;;;7.70;7.07;;;;;;;;;;4976239;28;20752;-51
2022/09/08 03:33:18;;;;;;;8.70;7.03;;;;;;;;;;4976067;28;20419;-49
2022/09/08 03:35:46;;;;;;;8.43;7.63;;;;;;;;;;4975846;28;20943;-51
2022/09/08 03:38:12;;;;;;;8.90;8.10;;;;;;;;;;4975768;28;20418;-52
2022/09/08 03:40:40;;;;;;;8.90;8.07;;;;;;;;;;4976089;28;21057;-51
2022/09/08 03:43:07;;;;;;;8.93;8.13;;;;;;;;;;4976321;28;20496;-47
2022/09/08 03:45:33;;;;;;;7.43;6.80;;;;;;;;;;4974430;28;20417;-47
2022/09/08 03:47:59;;;;;;;7.30;6.60;;;;;;;;;;4974744;28;20463;-47
2022/09/08 03:50:25;;;;;;;9.07;5.53;;;;;;;;;;4975811;28;20461;-47
2022/09/08 03:52:51;;;;;;;6.70;6.20;;;;;;;;;;4975693;28;20408;-49
2022/09/08 03:55:18;;;;;;;8.10;7.23;;;;;;;;;;4974960;28;20886;-50
2022/09/08 03:57:44;;;;;;;10.37;8.10;;;;;;;;;;4971798;28;20429;-46
2022/09/08 04:00:12;;;;;;;7.20;5.80;;;;;;;;;;4975170;28;20990;-46
2022/09/08 04:02:38;;;;;;;6.97;6.30;;;;;;;;;;4975557;28;20775;-48
2022/09/08 04:05:04;;;;;;;7.87;5.97;;;;;;;;;;4975119;28;20405;-47
2022/09/08 04:07:31;;;;;;;5.60;4.23;;;;;;;;;;4972371;28;20468;-47
2022/09/08 04:09:57;;;;;;;4.30;3.90;;;;;;;;;;4974309;28;20554;-46
2022/09/08 04:12:24;;;;;;;5.90;3.80;;;;;;;;;;4975530;28;20767;-47
2022/09/08 04:14:51;;;;;;;4.60;3.70;;;;;;;;;;4975024;28;20464;-47
2022/09/08 04:17:18;;;;;;;3.27;3.07;;;;;;;;;;4973156;28;20998;-47
2022/09/08 04:19:44;;;;;;;4.53;4.20;;;;;;;;;;4974624;28;20416;-46
2022/09/08 04:22:11;;;;;;;4.83;3.87;;;;;;;;;;4975197;28;20491;-47
2022/09/08 04:24:37;;;;;;;4.80;4.27;;;;;;;;;;4975108;28;20401;-49
2022/09/08 04:27:03;;;;;;;3.93;3.53;;;;;;;;;;4973013;28;20531;-50
2022/09/08 04:29:29;;;;;;;3.37;3.10;;;;;;;;;;4954879;29;20505;-51
2022/09/08 04:31:55;;;;;;;5.00;3.63;;;;;;;;;;4955588;29;20498;-47
2022/09/08 04:34:21;;;;;;;4.73;3.77;;;;;;;;;;4955596;29;20548;-46
2022/09/08 04:36:47;;;;;;;6.70;3.77;;;;;;;;;;4955364;29;20404;-47
2022/09/08 04:39:16;;;;;;;4.37;3.40;;;;;;;;;;4954872;29;20397;-46
2022/09/08 04:41:42;;;;;;;3.47;3.20;;;;;;;;;;4964986;28;20436;-46
2022/09/08 04:44:08;;;;;;;5.60;3.37;;;;;;;;;;4974296;28;20476;-46
2022/09/08 04:46:34;;;;;;;5.30;3.50;;;;;;;;;;4974487;28;20424;-46
2022/09/08 04:49:00;;;;;;;5.03;3.70;;;;;;;;;;4973951;28;20413;-48
2022/09/08 04:51:27;;;;;;;4.80;3.03;;;;;;;;;;4973291;28;20508;-46
2022/09/08 04:53:55;;;;;;;6.90;3.93;;;;;;;;;;4973748;28;20551;-48
2022/09/08 04:56:22;;;;;;;5.73;3.90;;;;;;;;;;4974259;28;20459;-46
2022/09/08 04:58:48;;;;;;;5.43;3.83;;;;;;;;;;4973885;28;20446;-47
2022/09/08 05:01:18;;;;;;;4.60;4.00;;;;;;;;;;4974444;28;20931;-47
2022/09/08 05:03:43;;;;;;;4.10;3.73;;;;;;;;;;4974323;28;20440;-51
2022/09/08 05:06:11;;;;;;;5.97;3.77;;;;;;;;;;4974156;28;20419;-48
2022/09/08 05:08:37;;;;;;;5.23;4.13;;;;;;;;;;4972806;28;20423;-46
2022/09/08 05:11:04;;;;;;;6.33;3.80;;;;;;;;;;4974162;28;20407;-46
2022/09/08 05:13:31;;;;;;;3.73;3.43;;;;;;;;;;4974063;28;20407;-48
2022/09/08 05:16:03;;;;;;;5.70;4.17;;;;;;;;;;4973602;28;20397;-48
2022/09/08 05:18:29;;;;;;;4.40;3.90;;;;;;;;;;4973668;28;20370;-46
2022/09/08 05:20:55;;;;;;;6.23;4.40;;;;;;;;;;4970161;28;20428;-48
2022/09/08 05:23:21;;;;;;;5.43;4.57;;;;;;;;;;4973775;28;20897;-47
2022/09/08 05:25:55;;;;;;;4.70;4.30;;;;;;;;;;4973585;28;20425;-50
2022/09/08 05:28:21;;;;;;;6.53;5.13;;;;;;;;;;4973525;28;20460;-47
2022/09/08 05:30:47;;;;;;;6.33;3.90;;;;;;;;;;4973907;28;20411;-46
2022/09/08 05:33:13;;;;;;;10.07;4.43;;;;;;;;;;4973917;28;20411;-47
2022/09/08 05:35:39;;;;;;;4.93;4.50;;;;;;;;;;4972043;28;20487;-49
2022/09/08 05:38:05;;;;;;;4.50;4.10;;;;;;;;;;4973364;28;20435;-46
2022/09/08 05:40:34;;;;;;;4.50;4.07;;;;;;;;;;4973805;28;20433;-47
2022/09/08 05:43:00;;;;;;;5.70;4.20;;;;;;;;;;4973698;28;20461;-47
2022/09/08 05:45:26;;;;;;;9.07;5.20;;;;;;;;;;4973459;28;20500;-47
2022/09/08 05:47:52;;;;;;;6.30;5.60;;;;;;;;;;4973059;28;20410;-46
2022/09/08 05:50:18;;;;;;;4.83;4.23;;;;;;;;;;4973452;28;20414;-46
2022/09/08 05:52:44;;;;;;;5.00;4.50;;;;;;;;;;4971586;28;20429;-48
2022/09/08 05:55:10;;;;;;;7.93;4.77;;;;;;;;;;4972875;28;20541;-48
2022/09/08 05:57:35;;;;;;;4.60;4.20;;;;;;;;;;4972948;28;20489;-49
2022/09/08 06:00:02;;;;;;;8.50;5.07;;;;;;;;;;4972932;28;20480;-50
2022/09/08 06:02:28;;;;;;;4.97;4.57;;;;;;;;;;4971923;28;20373;-48
2022/09/08 06:04:55;;;;;;;5.37;4.57;;;;;;;;;;4962707;28;20778;-48
2022/09/08 06:07:22;;;;;;;6.03;4.30;;;;;;;;;;4971403;28;20477;-47
2022/09/08 06:09:47;;;;;;;13.67;5.50;;;;;;;;;;4972339;28;20377;-47
2022/09/08 06:12:13;;;;;;;4.70;4.10;;;;;;;;;;4971456;28;20841;-47
2022/09/08 06:14:39;;;;;;;5.50;5.00;;;;;;;;;;4971683;28;20422;-46
2022/09/08 06:17:06;;;;;;;7.00;4.03;;;;;;;;;;4972704;28;20418;-49
2022/09/08 06:19:32;;;;;;;4.53;4.13;;;;;;;;;;4969503;28;20376;-51
2022/09/08 06:21:58;;;;;;;5.13;4.00;;;;;;;;;;4973063;28;20385;-47
2022/09/08 06:24:24;;;;;;;6.63;5.27;;;;;;;;;;4972995;28;20776;-47
2022/09/08 06:27:01;;;;;;;5.60;5.07;;;;;;;;;;4973012;28;20913;-47
2022/09/08 06:29:33;;;;;;;7.10;4.40;;;;;;;;;;4972229;28;20414;-46
2022/09/08 06:32:02;;;;;;;7.10;4.97;;;;;;;;;;4971245;28;20433;-47
2022/09/08 06:34:48;;;;;;;5.90;5.20;;;;;;;;;;4979059;28;20516;-49
2022/09/08 06:37:30;;;;;;;5.70;4.83;;;;;;;;;;4979263;28;20426;-49
2022/09/08 06:40:06;;;;;;;7.73;5.30;;;;;;;;;;4979005;28;20908;-47
2022/09/08 06:42:37;;;;;;;8.10;5.73;;;;;;;;;;4977316;28;20399;-47
2022/09/08 06:45:06;;;;;;;7.37;5.77;;;;;;;;;;4979004;28;20398;-47
2022/09/08 06:47:39;;;;;;;5.87;5.37;;;;;;;;;;4978952;28;20407;-46
2022/09/08 06:50:07;;;;;;;6.50;5.90;;;;;;;;;;4979402;28;20404;-48
2022/09/08 06:52:43;;;;;;;10.83;5.60;;;;;;;;;;4978011;28;20442;-47
2022/09/08 06:55:18;;;;;;;6.20;5.70;;;;;;;;;;4978508;28;20464;-50
2022/09/08 06:57:47;;;;;;;9.80;5.90;;;;;;;;;;4978912;28;20824;-47
2022/09/08 07:00:13;;;;;;;7.90;6.03;;;;;;;;;;4979204;28;20979;-46
2022/09/08 07:02:39;;;;;;;8.23;7.40;;;;;;;;;;4979305;28;20373;-46
2022/09/08 07:05:11;;;;;;;9.40;6.80;;;;;;;;;;4978981;28;20784;-46
2022/09/08 07:07:47;;;;;;;10.40;5.80;;;;;;;;;;4976255;28;20413;-49
2022/09/08 07:10:29;;;;;;;7.53;6.63;;;;;;;;;;4978117;28;20392;-48
2022/09/08 07:13:13;;;;;;;10.37;6.70;;;;;;;;;;4979218;28;20684;-47
2022/09/08 07:15:45;;;;;;;10.30;7.60;;;;;;;;;;4978375;28;20471;-48
2022/09/08 07:18:17;;;;;;;8.07;6.30;;;;;;;;;;4978841;28;20468;-46
2022/09/08 07:20:43;;;;;;;9.27;6.87;;;;;;;;;;4976936;28;20441;-46
2022/09/08 07:23:24;;;;;;;7.27;6.53;;;;;;;;;;4978764;28;20399;-47
2022/09/08 07:25:58;;;;;;;7.40;6.80;;;;;;;;;;4978797;28;20433;-46
2022/09/08 07:28:26;;;;;;;7.90;7.10;;;;;;;;;;4978424;28;20403;-46
2022/09/08 07:31:01;;;;;;;8.80;6.47;;;;;;;;;;4979015;28;20382;-48
2022/09/08 07:33:34;;;;;;;10.83;7.17;;;;;;;;;;4978710;28;20413;-47
2022/09/08 07:36:00;;;;;;;7.47;6.37;;;;;;;;;;4976436;28;20473;-47
2022/09/08 07:38:32;;;;;;;9.00;6.90;;;;;;;;;;4978130;28;20410;-47
2022/09/08 07:40:58;;;;;;;10.13;8.20;;;;;;;;;;4978962;28;20406;-46
2022/09/08 07:43:25;;;;;;;14.07;7.40;;;;;;;;;;4977763;28;20955;-46
2022/09/08 07:45:56;;;;;;;9.80;7.60;;;;;;;;;;4974061;28;20467;-47
2022/09/08 07:48:42;;;;;;;7.43;6.73;;;;;;;;;;4975173;28;20423;-46
2022/09/08 07:51:16;;;;;;;7.77;6.73;;;;;;;;;;4975766;28;20428;-46
2022/09/08 07:53:48;;;;;;;10.03;6.73;;;;;;;;;;4973266;28;20441;-50
2022/09/08 07:56:20;;;;;;;6.67;6.17;;;;;;;;;;4975136;28;20530;-50
2022/09/08 07:58:51;;;;;;;9.70;7.37;;;;;;;;;;4974490;28;20451;-47
2022/09/08 08:01:38;;;;;;;7.43;6.63;;;;;;;;;;4975410;28;20406;-46
2022/09/08 08:04:04;;;;;;;13.00;7.63;;;;;;;;;;4974785;28;20399;-46
2022/09/08 08:06:54;;;;;;;8.13;7.17;;;;;;;;;;4974869;28;20438;-46
2022/09/08 08:09:23;;;;;;;8.10;6.40;;;;;;;;;;4971588;28;20427;-46
2022/09/08 08:12:07;;;;;;;7.67;6.97;;;;;;;;;;4975308;28;20422;-47
2022/09/08 08:14:56;;;;;;;8.80;7.47;;;;;;;;;;4974516;28;20922;-50
2022/09/08 08:17:35;;;;;;;7.20;6.00;;;;;;;;;;4952206;29;20933;-48
2022/09/08 08:20:20;;;;;;;10.50;8.10;;;;;;;;;;4955507;29;20454;-45
2022/09/08 08:23:05;;;;;;;8.40;6.87;;;;;;;;;;4955376;28;20379;-51
2022/09/08 08:25:41;;;;;;;7.93;6.20;;;;;;;;;;4954968;28;20538;-47
2022/09/08 08:28:17;;;;;;;6.53;5.93;;;;;;;;;;4973668;28;20414;-47
2022/09/08 08:30:48;;;;;;;6.27;5.77;;;;;;;;;;4974311;28;20401;-50
2022/09/08 08:33:24;;;;;;;9.87;6.40;;;;;;;;;;4974428;28;20417;-51
2022/09/08 08:36:00;;;;;;;8.10;6.37;;;;;;;;;;4974067;28;20467;-52
2022/09/08 08:38:30;;;;;;;12.00;6.70;;;;;;;;;;4973984;28;20403;-52
2022/09/08 08:40:56;;;;;;;6.57;5.80;;;;;;;;;;4972433;28;20411;-50
2022/09/08 08:43:25;;;;;;;7.30;5.57;;;;;;;;;;4973152;28;20418;-52
2022/09/08 08:46:10;;;;;;;5.67;4.80;;;;;;;;;;4973050;28;20424;-51
2022/09/08 08:48:55;;;;;;;6.03;5.37;;;;;;;;;;4973787;28;20405;-53
2022/09/08 08:51:27;;;;;;;6.80;5.47;;;;;;;;;;4974170;28;21005;-52
2022/09/08 08:54:03;;;;;;;5.80;5.00;;;;;;;;;;4973741;28;20466;-52
2022/09/08 08:56:31;;;;;;;9.23;5.57;;;;;;;;;;4973416;28;20829;-50
2022/09/08 08:59:06;;;;;;;6.77;5.20;;;;;;;;;;4973251;28;20425;-50
2022/09/08 09:01:41;;;;;;;6.73;6.07;;;;;;;;;;4971939;28;20429;-52
2022/09/08 09:04:07;;;;;;;7.03;5.67;;;;;;;;;;4970935;28;20428;-50
2022/09/08 09:06:43;;;;;;;5.00;4.60;;;;;;;;;;4974043;28;20436;-51
2022/09/08 09:09:09;;;;;;;5.67;4.90;;;;;;;;;;4972822;28;20413;-51
2022/09/08 09:11:45;;;;;;;5.60;5.10;;;;;;;;;;4973919;28;20468;-50
2022/09/08 09:14:37;;;;;;;6.53;5.90;;;;;;;;;;4972289;28;20886;-52
2022/09/08 09:17:13;;;;;;;7.53;5.03;;;;;;;;;;4945485;28;20944;-53
2022/09/08 09:20:03;;;;;;;10.07;6.13;;;;;;;;;;4972025;28;20424;-52
2022/09/08 09:22:39;;;;;;;8.03;5.23;;;;;;;;;;4973524;28;20413;-48
2022/09/08 09:25:28;;;;;;;6.53;5.47;;;;;;;;;;4972404;28;20428;-53
2022/09/08 09:28:14;;;;;;;7.40;4.90;;;;;;;;;;4965577;28;20434;-48
2022/09/08 09:31:00;;;;;;;7.33;4.63;;;;;;;;;;4973427;28;20433;-48
2022/09/08 09:33:38;;;;;;;5.83;4.10;;;;;;;;;;4973186;28;20932;-48
2022/09/08 09:36:16;;;;;;;7.23;3.60;;;;;;;;;;4972851;28;20532;-48
2022/09/08 09:38:57;;;;;;;12.83;4.07;;;;;;;;;;4972752;28;20410;-49
2022/09/08 09:41:32;;;;;;;8.13;3.97;;;;;;;;;;4973519;28;20397;-48
2022/09/08 09:44:08;;;;;;;5.40;4.10;;;;;;;;;;4973588;28;20439;-47
2022/09/08 09:46:48;;;;;;;4.50;3.63;;;;;;;;;;4972975;28;20439;-46
2022/09/08 09:49:29;;;;;;;4.37;3.80;;;;;;;;;;4972538;28;20417;-46
2022/09/08 09:52:03;;;;;;;7.30;3.73;;;;;;;;;;4973418;28;20405;-47
2022/09/08 09:54:43;;;;;;;4.50;4.20;;;;;;;;;;4972848;28;21055;-47
2022/09/08 09:57:35;;;;;;;5.93;3.60;;;;;;;;;;4973234;28;20512;-49
2022/09/08 10:00:14;;;;;;;4.60;3.30;;;;;;;;;;4937688;28;20441;-47
2022/09/08 10:03:00;;;;;;;2.70;2.20;;;;;;;;;;4968943;28;20429;-50
2022/09/08 10:05:30;;;;;;;4.27;2.93;;;;;;;;;;4962371;28;20925;-50
2022/09/08 10:08:11;;;;;;;3.63;2.43;;;;;;;;;;4971827;28;20385;-47
2022/09/08 10:10:40;;;;;;;3.37;3.17;;;;;;;;;;4972529;28;20422;-47
2022/09/08 10:13:15;;;;;;;3.03;2.73;;;;;;;;;;4972761;28;20955;-47
2022/09/08 10:16:00;;;;;;;4.93;2.80;;;;;;;;;;4972101;28;20840;-50
2022/09/08 10:18:38;;;;;;;2.50;2.13;;;;;;;;;;4972309;28;20407;-47
2022/09/08 10:21:13;;;;;;;3.37;2.43;;;;;;;;;;4973190;28;20911;-49
2022/09/08 10:23:58;;;;;;;2.57;2.03;;;;;;;;;;4970736;28;20490;-47
2022/09/08 10:26:24;;;;;;;4.37;2.00;;;;;;;;;;4972133;28;20433;-50
2022/09/08 10:28:53;;;;;;;2.80;2.00;;;;;;;;;;4972166;28;20419;-50
2022/09/08 10:31:19;;;;;;;2.33;2.13;;;;;;;;;;4973067;28;20412;-48
2022/09/08 10:34:03;;;;;;;2.63;1.87;;;;;;;;;;4972040;28;20428;-50
2022/09/08 10:36:32;;;;;;;5.90;1.83;;;;;;;;;;4958247;28;20449;-48
2022/09/08 10:39:15;;;;;;;2.63;2.10;;;;;;;;;;4972148;28;20409;-48
2022/09/08 10:41:59;;;;;;;2.20;2.00;;;;;;;;;;4972840;28;20411;-50
2022/09/08 10:44:41;;;;;;;3.10;2.00;;;;;;;;;;4972295;28;20845;-48
2022/09/08 10:47:26;;;;;;;3.03;2.47;;;;;;;;;;4972544;28;20429;-48
2022/09/08 10:50:12;;;;;;;3.27;2.10;;;;;;;;;;4970258;28;20424;-54
2022/09/08 10:52:52;;;;;;;2.27;1.80;;;;;;;;;;4972395;28;20463;-49
2022/09/08 10:55:18;;;;;;;4.90;2.10;;;;;;;;;;4972037;28;20832;-49
2022/09/08 10:58:03;;;;;;;8.40;2.53;;;;;;;;;;4971817;28;20408;-49
2022/09/08 11:00:35;;;;;;;4.80;2.63;;;;;;;;;;4972160;28;20983;-48
2022/09/08 11:03:04;;;;;;;3.50;2.50;;;;;;;;;;4972453;28;20461;-47
2022/09/08 11:05:42;;;;;;;3.10;2.37;;;;;;;;;;4971990;28;20967;-46
2022/09/08 11:08:38;;;;;;;2.70;2.40;;;;;;;;;;4971812;28;20409;-47
2022/09/08 11:11:12;;;;;;;2.17;1.90;;;;;;;;;;4944859;28;20922;-48
2022/09/08 11:13:41;;;;;;;3.00;1.70;;;;;;;;;;4953332;28;20412;-49
2022/09/08 11:16:07;;;;;;;3.93;1.80;;;;;;;;;;4972088;28;20785;-47
2022/09/08 11:18:52;;;;;;;3.83;1.67;;;;;;;;;;4973245;28;20456;-49
2022/09/08 11:21:27;;;;;;;3.70;1.67;;;;;;;;;;4970206;28;20423;-49
2022/09/08 11:24:08;;;;;;;3.50;1.63;;;;;;;;;;4975028;28;20428;-48
2022/09/08 11:26:47;;;;;;;1.93;1.30;;;;;;;;;;4975765;28;20428;-50
2022/09/08 11:29:14;;;;;;;2.30;1.20;;;;;;;;;;4974931;28;20975;-51
2022/09/08 11:31:46;;;;;;;2.13;1.30;;;;;;;;;;4973181;28;20435;-48
2022/09/08 11:34:25;;;;;;;2.00;1.80;;;;;;;;;;4974539;28;20853;-48
2022/09/08 11:36:51;;;;;;;5.80;2.13;;;;;;;;;;4974932;28;20441;-49
2022/09/08 11:39:26;;;;;;;2.50;1.83;;;;;;;;;;4975557;28;20409;-51
2022/09/08 11:41:52;;;;;;;2.50;2.00;;;;;;;;;;4974731;28;20515;-49
2022/09/08 11:44:37;;;;;;;2.23;1.30;;;;;;;;;;4975677;28;20814;-48
2022/09/08 11:47:09;;;;;;;8.87;1.70;;;;;;;;;;4974888;28;20446;-48
2022/09/08 11:49:44;;;;;;;6.83;1.43;;;;;;;;;;4975394;28;20465;-48
2022/09/08 11:52:29;;;;;;;4.97;1.37;;;;;;;;;;4975205;28;20504;-49
2022/09/08 11:55:13;;;;;;;1.87;1.10;;;;;;;;;;4955923;29;20452;-48
2022/09/08 11:58:02;;;;;;;4.17;1.30;;;;;;;;;;4965854;28;20405;-49
2022/09/08 12:00:55;;;;;;;5.40;1.30;;;;;;;;;;4975171;28;20436;-47
2022/09/08 12:03:32;;;;;;;7.13;1.20;;;;;;;;;;4974989;28;20504;-49
2022/09/08 12:06:10;;;;;;;2.97;1.13;;;;;;;;;;4974116;28;20431;-49
2022/09/08 12:08:36;;;;;;;2.90;1.10;;;;;;;;;;4966842;28;20444;-49
2022/09/08 12:11:08;;;;;;;2.53;1.37;;;;;;;;;;4955918;29;20909;-48
2022/09/08 12:13:43;;;;;;;2.80;1.70;;;;;;;;;;4972017;28;20940;-50
2022/09/08 12:16:19;;;;;;;3.07;1.33;;;;;;;;;;4974461;28;20432;-47
2022/09/08 12:18:56;;;;;;;3.27;1.40;;;;;;;;;;4974535;28;20776;-47
2022/09/08 12:21:42;;;;;;;2.40;1.27;;;;;;;;;;4974718;28;20405;-47
2022/09/08 12:24:08;;;;;;;3.73;1.83;;;;;;;;;;4974319;28;20427;-48
2022/09/08 12:26:44;;;;;;;2.07;1.57;;;;;;;;;;4974675;28;20444;-47
2022/09/08 12:29:31;;;;;;;2.90;1.20;;;;;;;;;;4974025;28;20459;-48
2022/09/08 12:32:13;;;;;;;2.90;1.10;;;;;;;;;;4974481;28;20401;-48
2022/09/08 12:34:42;;;;;;;2.70;1.00;;;;;;;;;;4969233;28;20828;-47
2022/09/08 12:37:08;;;;;;;1.87;1.10;;;;;;;;;;4974136;28;20465;-49
2022/09/08 12:39:33;;;;;;;2.00;1.40;;;;;;;;;;4973876;28;20452;-47
2022/09/08 12:42:18;;;;;;;1.80;1.10;;;;;;;;;;4974481;28;20208;-48
2022/09/08 12:45:03;;;;;;;3.93;1.10;;;;;;;;;;4973541;28;20182;-49
2022/09/08 12:47:49;;;;;;;4.30;1.00;;;;;;;;;;4974393;28;20416;-47
2022/09/08 12:50:18;;;;;;;1.90;1.10;;;;;;;;;;4934429;28;20777;-50
2022/09/08 12:52:51;;;;;;;1.10;0.90;;;;;;;;;;4954829;29;20469;-48
2022/09/08 12:55:23;;;;;;;2.97;1.10;;;;;;;;;;4972102;28;21011;-48
2022/09/08 12:57:57;;;;;;;4.17;1.10;;;;;;;;;;4974038;28;20468;-51
2022/09/08 13:00:30;;;;;;;2.07;1.30;;;;;;;;;;4973431;28;20413;-48
2022/09/08 13:03:03;;;;;;;4.10;1.40;;;;;;;;;;4968672;28;20435;-50
2022/09/08 13:05:48;;;;;;;4.87;1.37;;;;;;;;;;4973816;28;20421;-46
2022/09/08 13:08:23;;;;;;;1.37;1.27;;;;;;;;;;4973672;28;20415;-49
2022/09/08 13:10:52;;;;;;;3.67;1.10;;;;;;;;;;4971835;28;20436;-46
2022/09/08 13:13:37;;;;;;;3.47;1.13;;;;;;;;;;4973136;28;20483;-52
2022/09/08 13:16:18;;;;;;;3.20;1.20;;;;;;;;;;4973569;28;20550;-51
2022/09/08 13:19:03;;;;;;;6.20;1.20;;;;;;;;;;4972941;28;21024;-47
2022/09/08 13:21:41;;;;;;;3.30;1.50;;;;;;;;;;4973729;28;20480;-49
2022/09/08 13:24:11;;;;;;;1.60;1.10;;;;;;;;;;4973708;28;20881;-46
2022/09/08 13:26:46;;;;;;;1.77;1.20;;;;;;;;;;4973649;28;20428;-47
2022/09/08 13:29:21;;;;;;;4.17;1.23;;;;;;;;;;4973123;28;20404;-49
2022/09/08 13:32:05;;;;;;;2.37;1.10;;;;;;;;;;4972316;28;20405;-47
2022/09/08 13:34:37;;;;;;;1.43;1.00;;;;;;;;;;4973031;28;20571;-48
2022/09/08 13:37:12;;;;;;;3.43;1.13;;;;;;;;;;4973362;28;20435;-49
2022/09/08 13:39:38;;;;;;;1.10;1.00;;;;;;;;;;4972704;28;20770;-47
2022/09/08 13:42:07;;;;;;;1.10;0.90;;;;;;;;;;4973806;28;20409;-47
2022/09/08 13:44:36;;;;;;;1.97;1.33;;;;;;;;;;4973167;28;20897;-47
2022/09/08 13:47:02;;;;;;;1.37;0.90;;;;;;;;;;4973227;28;20924;-47
2022/09/08 13:49:31;;;;;;;1.77;1.03;;;;;;;;;;4973074;28;20471;-48
2022/09/08 13:51:57;;;;;;;1.27;1.03;;;;;;;;;;4973410;28;20412;-48
2022/09/08 13:54:23;;;;;;;4.30;1.00;;;;;;;;;;4972992;28;20452;-48
2022/09/08 13:56:49;;;;;;;1.90;1.10;;;;;;;;;;4972871;28;20778;-46
2022/09/08 13:59:15;;;;;;;3.83;1.00;;;;;;;;;;4972248;28;20185;-48
2022/09/08 14:01:43;;;;;;;5.73;1.80;;;;;;;;;;4972965;28;20204;-47
2022/09/08 14:04:12;;;;;;;4.80;1.20;;;;;;;;;;4972630;28;20404;-47
2022/09/08 14:06:50;;;;;;;2.90;1.20;;;;;;;;;;4972514;28;20453;-46
2022/09/08 14:09:21;;;;;;;2.50;1.60;;;;;;;;;;4972326;28;20419;-46
2022/09/08 14:12:04;;;;;;;6.53;1.33;;;;;;;;;;4972887;28;20408;-46
2022/09/08 14:14:36;;;;;;;4.13;1.87;;;;;;;;;;4972333;28;20444;-48
2022/09/08 14:17:06;;;;;;;1.17;1.00;;;;;;;;;;4972375;28;20436;-51
2022/09/08 14:19:51;;;;;;;3.67;1.30;;;;;;;;;;4972165;28;20411;-48
2022/09/08 14:22:36;;;;;;;2.80;1.53;;;;;;;;;;4972999;28;20903;-46
2022/09/08 14:25:16;;;;;;;2.70;2.00;;;;;;;;;;4972530;28;20492;-46
2022/09/08 14:27:57;;;;;;;1.50;1.40;;;;;;;;;;4972592;28;20433;-46
2022/09/08 14:30:35;;;;;;;1.93;1.30;;;;;;;;;;4972482;28;20449;-46
2022/09/08 14:33:16;;;;;;;2.83;1.27;;;;;;;;;;4972431;28;20734;-47
2022/09/08 14:35:51;;;;;;;1.50;1.10;;;;;;;;;;4972185;28;20459;-48
2022/09/08 14:38:23;;;;;;;3.97;1.30;;;;;;;;;;4972083;28;20781;-46
2022/09/08 14:40:54;;;;;;;5.20;1.40;;;;;;;;;;4972735;28;20438;-47
2022/09/08 14:43:23;;;;;;;2.67;1.30;;;;;;;;;;4972199;28;20793;-47
2022/09/08 14:46:08;;;;;;;2.30;1.20;;;;;;;;;;4972212;28;20425;-46
2022/09/08 14:48:57;;;;;;;1.90;1.27;;;;;;;;;;4972135;28;20826;-46
2022/09/08 14:51:24;;;;;;;3.10;1.80;;;;;;;;;;4972399;28;20466;-49
2022/09/08 14:54:02;;;;;;;1.60;1.30;;;;;;;;;;4973960;28;20419;-47
2022/09/08 14:56:33;;;;;;;6.00;2.43;;;;;;;;;;4976702;28;20450;-47
2022/09/08 14:59:04;;;;;;;4.73;1.50;;;;;;;;;;4975869;28;20786;-45
2022/09/08 15:01:33;;;;;;;2.33;1.90;;;;;;;;;;4976276;28;20406;-48
2022/09/08 15:04:04;;;;;;;5.53;1.40;;;;;;;;;;4976221;28;20496;-46
2022/09/08 15:06:38;;;;;;;2.60;1.40;;;;;;;;;;4975191;28;20515;-46
2022/09/08 15:09:25;;;;;;;1.07;0.97;;;;;;;;;;4975640;28;20926;-46
2022/09/08 15:11:54;;;;;;;1.10;1.00;;;;;;;;;;4975750;28;20779;-46
2022/09/08 15:14:45;;;;;;;2.43;1.40;;;;;;;;;;4975841;28;20515;-45